Time;durP1;ratioP1;P1;durP2;ratioP2;P2;SDS_P1;SDS_P2;PMS_P1;PMS_P2;Temp;Humidity;BMP_temperature;BMP_pressure;BME280_temperature;BME280_humidity;BME280_pressure;Samples;Min_cycle;Max_cycle;Signal;HPM_P1;HPM_P2
2021/03/17 00:02:12;;;;;;;1.90;1.40;;;;;;;23.45;37.53;93664.25;4994138;28;20037;-79
2021/03/17 00:04:38;;;;;;;1.98;1.50;;;;;;;23.46;37.20;93663.00;4993887;28;20890;-80
2021/03/17 00:07:04;;;;;;;2.38;1.90;;;;;;;23.43;37.37;93658.63;5010305;28;20426;-79
2021/03/17 00:09:29;;;;;;;2.78;1.50;;;;;;;23.43;37.37;93659.34;5028515;28;20026;-79
2021/03/17 00:11:54;;;;;;;1.63;1.40;;;;;;;23.21;37.28;93632.06;5013140;28;20030;-79
2021/03/17 00:14:20;;;;;;;2.03;1.60;;;;;;;23.38;37.42;93654.09;5012798;28;20037;-78
2021/03/17 00:16:45;;;;;;;2.38;1.50;;;;;;;23.38;37.12;93662.25;4996002;28;20030;-79
2021/03/17 00:19:11;;;;;;;2.15;1.70;;;;;;;23.35;36.87;93652.44;5013506;28;20084;-79
2021/03/17 00:21:37;;;;;;;1.92;1.50;;;;;;;23.35;37.07;93652.44;4995816;28;20057;-79
2021/03/17 00:24:03;;;;;;;1.98;1.60;;;;;;;23.35;37.21;93657.91;4995912;28;20022;-79
2021/03/17 00:26:28;;;;;;;2.15;1.58;;;;;;;23.34;37.12;93645.53;5012658;28;20017;-79
2021/03/17 00:28:53;;;;;;;1.58;1.27;;;;;;;23.31;37.22;93641.16;5003322;28;20427;-78
2021/03/17 00:31:19;;;;;;;2.13;1.70;;;;;;;23.31;37.21;93641.16;4993551;28;20037;-79
2021/03/17 00:33:44;;;;;;;2.38;1.60;;;;;;;23.34;37.18;93648.25;4993457;28;20065;-79
2021/03/17 00:36:10;;;;;;;1.85;1.60;;;;;;;23.32;37.02;93647.34;5007655;28;20030;-78
2021/03/17 00:38:35;;;;;;;2.10;1.60;;;;;;;23.31;37.54;93641.16;5012563;28;20026;-79
2021/03/17 00:41:01;;;;;;;1.90;1.42;;;;;;;23.28;37.06;93642.25;5013037;28;20081;-78
2021/03/17 00:43:26;;;;;;;2.28;1.90;;;;;;;23.27;37.15;93635.34;5011328;28;20111;-78
2021/03/17 00:45:52;;;;;;;2.10;1.73;;;;;;;23.28;37.29;93638.81;4997351;28;20022;-78
2021/03/17 00:48:17;;;;;;;3.47;1.70;;;;;;;23.25;37.02;93632.44;4992882;28;20023;-78
2021/03/17 00:50:43;;;;;;;2.00;1.40;;;;;;;23.22;37.23;93622.63;4992540;28;20033;-79
2021/03/17 00:53:08;;;;;;;3.35;1.60;;;;;;;23.29;37.28;93642.97;5001320;28;20018;-79
2021/03/17 00:55:34;;;;;;;2.08;1.60;;;;;;;23.26;36.90;93628.47;5012667;28;20487;-79
2021/03/17 00:57:59;;;;;;;2.55;1.70;;;;;;;23.26;37.04;93623.00;5012022;28;20506;-79
2021/03/17 01:00:25;;;;;;;2.13;1.75;;;;;;;23.21;37.29;93626.59;4995210;28;20415;-78
2021/03/17 01:02:51;;;;;;;2.20;1.60;;;;;;;23.21;37.35;93621.16;5012371;28;20050;-79
2021/03/17 01:05:16;;;;;;;1.80;1.40;;;;;;;23.24;37.11;93620.09;4994683;28;20028;-78
2021/03/17 01:07:42;;;;;;;2.30;1.70;;;;;;;23.23;37.42;93629.53;4995101;28;20029;-78
2021/03/17 01:10:18;;;;;;;2.22;1.70;;;;;;;23.23;37.38;93629.53;5012226;28;20026;-78
2021/03/17 01:12:43;;;;;;;2.40;1.95;;;;;;;23.04;36.98;93595.72;5011904;28;20040;-78
2021/03/17 01:15:11;;;;;;;2.38;1.60;;;;;;;23.22;37.17;93625.34;4995480;28;20059;-78
2021/03/17 01:17:36;;;;;;;2.35;1.52;;;;;;;23.20;37.49;93614.28;5012366;28;20010;-79
2021/03/17 01:20:03;;;;;;;2.83;1.80;;;;;;;23.19;36.96;93618.25;4994097;28;20407;-78
2021/03/17 01:22:28;;;;;;;1.80;1.55;;;;;;;23.18;37.41;93616.09;5011473;28;20494;-78
2021/03/17 01:24:53;;;;;;;1.98;1.60;;;;;;;23.15;37.23;93620.63;5005680;28;20083;-78
2021/03/17 01:27:19;;;;;;;2.70;1.60;;;;;;;23.09;37.36;93597.53;5000401;28;20034;-79
2021/03/17 01:29:44;;;;;;;2.85;1.60;;;;;;;23.17;37.36;93618.09;5011189;28;20036;-78
2021/03/17 01:32:10;;;;;;;2.65;1.80;;;;;;;23.17;37.14;93620.81;4993131;28;20022;-78
2021/03/17 01:34:35;;;;;;;1.83;1.50;;;;;;;23.17;36.98;93612.63;4994412;28;20045;-78
2021/03/17 01:37:01;;;;;;;2.25;1.63;;;;;;;23.18;37.25;93618.81;5010450;28;20093;-79
2021/03/17 01:39:26;;;;;;;2.38;1.67;;;;;;;23.17;37.16;93604.47;5010520;28;20033;-78
2021/03/17 01:41:52;;;;;;;2.90;1.60;;;;;;;23.16;37.06;93619.34;5010817;28;20022;-78
2021/03/17 01:44:17;;;;;;;2.00;1.60;;;;;;;22.83;37.17;93564.44;5011358;28;20032;-78
2021/03/17 01:46:43;;;;;;;2.05;1.70;;;;;;;23.10;36.98;93605.16;4993784;28;20033;-78
2021/03/17 01:49:08;;;;;;;2.63;2.03;;;;;;;23.15;37.18;93620.63;4993396;28;20022;-78
2021/03/17 01:51:34;;;;;;;2.00;1.70;;;;;;;23.15;36.96;93604.28;5010352;28;20083;-79
2021/03/17 01:53:59;;;;;;;2.30;1.60;;;;;;;23.15;37.32;93611.72;4993909;28;20542;-78
2021/03/17 01:56:25;;;;;;;2.50;1.63;;;;;;;22.90;37.26;93570.59;5000562;28;20510;-79
2021/03/17 01:58:50;;;;;;;1.83;1.35;;;;;;;23.14;37.43;93615.72;4963931;28;20092;-78
2021/03/17 02:01:16;;;;;;;2.10;1.60;;;;;;;23.12;37.06;93619.00;4995375;28;20021;-78
2021/03/17 02:03:42;;;;;;;2.25;1.75;;;;;;;23.11;37.15;93611.38;5020820;28;20041;-78
2021/03/17 02:06:07;;;;;;;2.38;1.88;;;;;;;23.09;37.11;93614.63;5003868;28;20025;-79
2021/03/17 02:08:37;;;;;;;2.60;1.50;;;;;;;22.94;37.11;93608.38;5019355;28;20034;-79
2021/03/17 02:11:03;;;;;;;2.13;1.63;;;;;;;23.09;37.44;93620.06;4997528;28;20517;-78
2021/03/17 02:13:55;;;;;;;2.22;1.60;;;;;;;23.08;37.32;93624.06;5016083;28;20038;-78
2021/03/17 02:16:27;;;;;;;2.13;1.60;;;;;;;23.10;37.26;93620.78;4980791;28;20037;-78
2021/03/17 02:19:10;;;;;;;2.70;1.58;;;;;;;23.11;37.17;93614.81;5010412;28;20057;-79
2021/03/17 02:22:03;;;;;;;2.08;1.50;;;;;;;23.08;37.17;93637.66;5011348;28;20034;-79
2021/03/17 02:24:38;;;;;;;2.00;1.45;;;;;;;23.06;37.05;93626.59;5011136;28;20113;-79
2021/03/17 02:27:26;;;;;;;2.25;1.98;;;;;;;22.96;37.05;93614.75;4994793;28;20087;-79
2021/03/17 02:30:16;;;;;;;2.10;1.50;;;;;;;23.06;37.09;93631.28;4996413;28;20030;-79
2021/03/17 02:33:14;;;;;;;2.17;1.80;;;;;;;23.06;37.21;93626.59;5011218;28;20466;-79
2021/03/17 02:35:39;;;;;;;1.70;1.40;;;;;;;23.05;37.23;93630.56;4967085;28;20037;-79
2021/03/17 02:38:07;;;;;;;2.75;1.75;;;;;;;23.04;37.47;93626.38;4992877;28;20026;-79
2021/03/17 02:40:34;;;;;;;1.85;1.48;;;;;;;23.08;37.34;93634.94;4993221;28;20022;-78
2021/03/17 02:43:14;;;;;;;2.28;1.80;;;;;;;23.07;37.03;93644.38;5011372;28;20113;-77
2021/03/17 02:45:41;;;;;;;2.42;1.70;;;;;;;23.05;37.04;93641.47;4993692;28;20021;-78
2021/03/17 02:48:15;;;;;;;1.83;1.50;;;;;;;23.03;37.29;93635.84;4993515;28;20029;-78
2021/03/17 02:50:45;;;;;;;2.28;1.67;;;;;;;23.01;37.20;93624.75;5009088;28;20514;-78
2021/03/17 02:53:11;;;;;;;2.75;1.83;;;;;;;23.05;37.10;93636.03;5011030;28;20049;-78
2021/03/17 02:55:38;;;;;;;2.33;1.88;;;;;;;23.05;37.23;93636.03;5011052;28;20483;-78
2021/03/17 02:58:03;;;;;;;1.80;1.55;;;;;;;23.04;37.14;93634.56;5009633;28;20037;-77
2021/03/17 03:00:29;;;;;;;2.38;1.63;;;;;;;23.07;37.05;93641.66;4993530;28;20030;-78
2021/03/17 03:02:55;;;;;;;2.13;1.60;;;;;;;22.82;37.17;93612.66;5009460;28;20049;-79
2021/03/17 03:05:20;;;;;;;2.20;1.52;;;;;;;23.03;37.03;93632.38;4993552;28;20068;-79
2021/03/17 03:07:49;;;;;;;2.55;1.50;;;;;;;23.03;37.36;93648.72;5013382;28;20474;-79
2021/03/17 03:10:16;;;;;;;1.92;1.67;;;;;;;22.88;37.35;93610.50;4995672;28;20030;-78
2021/03/17 03:12:42;;;;;;;1.90;1.60;;;;;;;22.67;37.13;93595.56;4996327;28;20514;-78
2021/03/17 03:15:08;;;;;;;1.83;1.42;;;;;;;23.02;36.93;93637.09;4993283;28;20022;-79
2021/03/17 03:17:34;;;;;;;2.13;1.83;;;;;;;23.01;36.98;93641.09;4995119;28;20499;-79
2021/03/17 03:20:00;;;;;;;2.17;1.63;;;;;;;23.02;37.14;93642.53;4977566;28;20046;-79
2021/03/17 03:22:25;;;;;;;3.00;1.50;;;;;;;23.03;37.38;93657.63;4994698;28;20495;-78
2021/03/17 03:24:51;;;;;;;1.67;1.55;;;;;;;22.81;37.21;93605.78;4993496;28;20030;-79
2021/03/17 03:27:16;;;;;;;2.33;1.33;;;;;;;23.02;37.01;93648.00;5010272;28;20040;-79
2021/03/17 03:29:42;;;;;;;2.22;1.52;;;;;;;22.83;36.94;93624.31;5009541;28;20529;-78
2021/03/17 03:32:08;;;;;;;2.20;1.60;;;;;;;22.98;37.16;93647.59;5010014;28;20037;-79
2021/03/17 03:34:35;;;;;;;1.40;1.20;;;;;;;22.85;37.21;93621.75;4994924;28;20037;-79
2021/03/17 03:37:00;;;;;;;1.85;1.38;;;;;;;22.90;37.24;93630.50;4994442;28;20043;-79
2021/03/17 03:39:26;;;;;;;2.63;1.75;;;;;;;23.01;36.90;93657.41;4994546;28;20022;-78
2021/03/17 03:41:52;;;;;;;1.65;1.52;;;;;;;22.99;37.25;93638.19;4994692;28;20049;-78
2021/03/17 03:44:17;;;;;;;2.08;1.40;;;;;;;23.00;37.15;93647.81;4994121;28;20549;-79
2021/03/17 03:46:43;;;;;;;2.20;1.50;;;;;;;22.98;36.90;93647.59;4994224;28;20088;-79
2021/03/17 03:49:08;;;;;;;1.67;1.35;;;;;;;22.99;37.06;93654.50;5009687;28;20029;-79
2021/03/17 03:51:34;;;;;;;2.05;1.52;;;;;;;22.79;37.37;93613.03;4994280;28;20426;-79
2021/03/17 03:54:06;;;;;;;1.80;1.58;;;;;;;22.86;36.97;93620.50;5009369;28;20500;-79
2021/03/17 03:56:42;;;;;;;2.25;1.50;;;;;;;22.56;37.06;93582.28;4993383;28;20027;-79
2021/03/17 03:59:08;;;;;;;1.85;1.30;;;;;;;22.97;37.14;93638.00;4993156;28;20566;-79
2021/03/17 04:01:47;;;;;;;2.25;1.70;;;;;;;22.96;36.98;93639.25;4961330;28;20061;-79
2021/03/17 04:04:14;;;;;;;1.92;1.40;;;;;;;22.89;37.12;93639.19;4993763;28;20156;-80
2021/03/17 04:06:40;;;;;;;2.28;1.40;;;;;;;22.66;36.98;93618.59;4976679;28;20026;-79
2021/03/17 04:09:05;;;;;;;2.78;1.70;;;;;;;22.79;37.27;93645.69;4960605;28;20026;-79
2021/03/17 04:11:31;;;;;;;1.92;1.30;;;;;;;22.77;37.36;93650.94;4993610;28;20030;-79
2021/03/17 04:13:58;;;;;;;2.22;1.70;;;;;;;22.81;37.19;93651.31;4993413;28;20038;-79
2021/03/17 04:16:23;;;;;;;1.52;1.33;;;;;;;22.79;37.15;93645.69;4960959;28;20104;-80
2021/03/17 04:18:49;;;;;;;2.10;1.35;;;;;;;22.86;37.17;93653.16;4976885;28;20034;-80
2021/03/17 04:21:24;;;;;;;4.07;1.90;;;;;;;22.87;37.14;93651.88;4976697;28;20030;-81
2021/03/17 04:23:50;;;;;;;2.00;1.33;;;;;;;22.73;37.06;93620.63;4968639;28;20030;-85
2021/03/17 04:26:17;;;;;;;2.38;1.58;;;;;;;22.91;37.25;93640.13;4982032;28;20040;-85
2021/03/17 04:28:42;;;;;;;1.63;1.33;;;;;;;22.86;37.28;93640.28;4970542;28;20029;-82
2021/03/17 04:31:08;;;;;;;2.38;1.65;;;;;;;22.89;37.14;93634.47;4982160;28;20029;-78
2021/03/17 04:33:33;;;;;;;1.88;1.50;;;;;;;22.94;37.38;93644.53;4984870;28;20026;-77
2021/03/17 04:35:59;;;;;;;1.80;1.45;;;;;;;22.62;36.98;93593.75;4965401;28;20045;-80
2021/03/17 04:38:25;;;;;;;3.00;1.27;;;;;;;22.75;37.31;93623.53;4975708;28;20496;-79
2021/03/17 04:40:51;;;;;;;1.73;1.55;;;;;;;22.67;37.03;93582.69;4985822;28;20026;-80
2021/03/17 04:43:17;;;;;;;1.65;1.50;;;;;;;22.84;36.59;93626.50;4965227;28;20034;-77
2021/03/17 04:45:42;;;;;;;1.63;1.38;;;;;;;22.97;36.69;93627.09;4994696;28;20021;-78
2021/03/17 04:48:08;;;;;;;2.10;1.55;;;;;;;23.25;36.39;93648.78;4969150;28;20029;-80
2021/03/17 04:50:33;;;;;;;2.67;2.10;;;;;;;23.17;34.82;93631.69;5007429;28;20034;-80
2021/03/17 04:52:59;;;;;;;2.97;1.90;;;;;;;22.91;35.30;93571.31;5010987;28;20037;-76
2021/03/17 04:55:25;;;;;;;2.28;1.70;;;;;;;23.52;35.72;93660.84;5011028;28;20029;-78
2021/03/17 04:57:50;;;;;;;2.67;1.85;;;;;;;23.62;35.17;93653.59;5003923;28;20022;-80
2021/03/17 05:00:22;;;;;;;2.28;1.65;;;;;;;23.73;35.51;93653.25;4981792;28;20495;-76
2021/03/17 05:02:52;;;;;;;2.03;1.27;;;;;;;23.84;34.84;93658.34;4996450;28;20046;-76
2021/03/17 05:05:18;;;;;;;1.77;1.50;;;;;;;23.90;34.89;93657.63;4999273;28;20026;-77
2021/03/17 05:07:43;;;;;;;6.03;3.60;;;;;;;23.68;30.75;93662.34;5022741;28;20034;-76
2021/03/17 05:10:09;;;;;;;5.75;2.80;;;;;;;23.78;32.03;93655.81;5015088;28;20095;-79
2021/03/17 05:12:36;;;;;;;6.47;2.30;;;;;;;23.94;33.79;93657.28;4992298;28;20086;-75
2021/03/17 05:15:02;;;;;;;3.35;1.98;;;;;;;24.13;33.93;93674.72;4982960;28;20060;-75
2021/03/17 05:17:28;;;;;;;2.20;1.60;;;;;;;23.80;33.79;93608.94;4983016;28;20498;-76
2021/03/17 05:19:53;;;;;;;2.33;1.58;;;;;;;24.34;34.09;93651.44;4983771;28;20080;-77
2021/03/17 05:22:19;;;;;;;2.10;1.70;;;;;;;24.10;33.63;93629.44;5002976;28;20025;-79
2021/03/17 05:24:44;;;;;;;2.20;1.80;;;;;;;24.55;33.07;93686.72;4968588;28;20034;-77
2021/03/17 05:27:14;;;;;;;2.97;1.67;;;;;;;24.28;33.77;93630.34;4973290;28;20029;-79
2021/03/17 05:29:39;;;;;;;2.63;1.70;;;;;;;24.73;33.62;93667.19;4973843;28;20079;-77
2021/03/17 05:32:05;;;;;;;2.03;1.40;;;;;;;24.82;33.33;93675.53;5008502;28;20461;-76
2021/03/17 05:34:34;;;;;;;4.18;1.58;;;;;;;24.76;33.46;93654.47;4997649;28;20057;-80
2021/03/17 05:36:59;;;;;;;1.80;1.58;;;;;;;24.95;33.12;93658.94;5038168;28;20044;-77
2021/03/17 05:39:25;;;;;;;2.58;1.38;;;;;;;24.83;33.02;93636.03;5018147;28;20462;-78
2021/03/17 05:41:50;;;;;;;2.25;1.67;;;;;;;25.10;33.35;93675.31;5001020;28;20022;-79
2021/03/17 05:44:16;;;;;;;3.30;2.17;;;;;;;25.03;31.49;93665.13;5003258;28;20490;-86
2021/03/17 05:46:41;;;;;;;2.10;1.70;;;;;;;25.13;32.32;93674.19;4987747;28;20410;-86
2021/03/17 05:49:07;;;;;;;3.38;1.50;;;;;;;25.18;32.92;93681.47;5011030;28;20494;-80
2021/03/17 05:51:32;;;;;;;2.20;1.77;;;;;;;25.17;32.70;93666.38;5010857;28;20037;-84
2021/03/17 05:53:58;;;;;;;2.80;1.58;;;;;;;24.97;32.92;93633.81;4999824;28;20029;-84
2021/03/17 05:56:23;;;;;;;2.88;1.77;;;;;;;25.26;32.54;93665.78;5015277;28;20030;-85
2021/03/17 05:58:49;;;;;;;1.92;1.40;;;;;;;25.13;32.40;93635.22;5026388;28;20029;-85
2021/03/17 06:01:15;;;;;;;2.80;1.42;;;;;;;25.29;32.52;93651.00;4993191;28;20124;-86
2021/03/17 06:03:40;;;;;;;4.80;1.40;;;;;;;25.31;32.77;93645.69;4997133;28;20116;-82
2021/03/17 06:06:06;;;;;;;3.08;1.70;;;;;;;25.53;32.67;93683.09;4986309;28;20030;-79
2021/03/17 06:08:37;;;;;;;1.98;1.45;;;;;;;25.49;32.58;93677.31;4998488;28;20427;-88
2021/03/17 06:11:02;;;;;;;5.45;1.60;;;;;;;25.47;32.39;93668.91;5012629;28;20022;-84
2021/03/17 06:13:28;;;;;;;3.03;1.70;;;;;;;25.35;32.43;93662.44;5006771;28;20034;-85
2021/03/17 06:15:58;;;;;;;3.00;1.52;;;;;;;25.64;32.33;93690.91;4986679;28;20029;-83
2021/03/17 06:18:35;;;;;;;3.95;1.95;;;;;;;25.73;32.49;93684.84;4971872;28;20090;-78
2021/03/17 06:21:02;;;;;;;3.45;1.70;;;;;;;25.78;32.65;93692.13;4990256;28;20042;-78
2021/03/17 06:23:27;;;;;;;3.67;2.10;;;;;;;25.60;31.55;93693.28;5006924;28;20098;-77
2021/03/17 06:25:53;;;;;;;2.65;1.73;;;;;;;25.51;31.60;93663.81;5008393;28;20096;-78
2021/03/17 06:28:18;;;;;;;1.73;1.50;;;;;;;25.78;32.38;93714.00;4992913;28;20036;-81
2021/03/17 06:30:44;;;;;;;2.53;1.40;;;;;;;25.79;32.70;93705.94;4976503;28;20041;-81
2021/03/17 06:33:10;;;;;;;2.20;1.40;;;;;;;25.83;32.33;93700.13;4985378;28;20472;-81
2021/03/17 06:35:35;;;;;;;2.35;1.45;;;;;;;25.87;32.34;93709.38;4990064;28;20033;-80
2021/03/17 06:38:01;;;;;;;3.80;1.65;;;;;;;25.55;32.33;93647.75;5011009;28;20033;-78
2021/03/17 06:40:32;;;;;;;2.05;1.60;;;;;;;25.89;32.41;93706.81;4983084;28;20033;-76
2021/03/17 06:43:07;;;;;;;2.20;1.52;;;;;;;25.91;32.10;93701.50;5003686;28;20116;-81
2021/03/17 06:45:44;;;;;;;2.42;1.80;;;;;;;25.91;32.27;93690.56;5008586;28;20128;-82
2021/03/17 06:48:25;;;;;;;2.42;1.77;;;;;;;25.95;32.17;93690.91;4989378;28;20097;-76
2021/03/17 06:51:13;;;;;;;3.17;1.60;;;;;;;25.98;32.06;93695.25;5006151;28;20507;-77
2021/03/17 06:53:55;;;;;;;5.18;2.15;;;;;;;25.84;30.28;93696.81;5005193;28;20175;-72
2021/03/17 06:56:34;;;;;;;2.95;2.00;;;;;;;25.91;31.52;93695.31;4994252;28;20072;-80
2021/03/17 06:59:09;;;;;;;5.90;2.00;;;;;;;25.93;31.81;93707.16;5011173;28;20037;-75
2021/03/17 07:01:48;;;;;;;3.22;1.88;;;;;;;26.03;31.65;93697.03;4997066;28;20042;-80
2021/03/17 07:04:21;;;;;;;3.67;1.63;;;;;;;25.99;32.01;93680.31;4997800;28;20050;-81
2021/03/17 07:06:48;;;;;;;2.92;1.65;;;;;;;25.88;31.96;93653.38;4989421;28;20034;-81
2021/03/17 07:09:14;;;;;;;2.95;1.55;;;;;;;26.21;31.66;93704.03;4994114;28;20014;-83
2021/03/17 07:11:39;;;;;;;2.97;1.65;;;;;;;26.14;31.81;93707.53;5007873;28;20038;-81
2021/03/17 07:14:05;;;;;;;2.50;1.77;;;;;;;26.22;31.77;93708.22;5010212;28;20049;-78
2021/03/17 07:16:38;;;;;;;2.20;1.60;;;;;;;26.28;31.74;93700.53;5005293;28;20029;-78
2021/03/17 07:19:04;;;;;;;4.82;2.00;;;;;;;26.32;31.60;93695.38;5006754;28;20045;-79
2021/03/17 07:21:35;;;;;;;2.08;1.65;;;;;;;26.35;31.45;93702.47;5001293;28;20114;-79
2021/03/17 07:24:02;;;;;;;2.72;1.63;;;;;;;26.34;31.43;93692.81;5014653;28;20025;-79
2021/03/17 07:26:30;;;;;;;2.63;1.63;;;;;;;26.03;31.35;93664.22;5009699;28;20034;-79
2021/03/17 07:28:58;;;;;;;2.95;1.70;;;;;;;26.30;31.54;93692.47;5021056;28;20033;-79
2021/03/17 07:31:25;;;;;;;2.83;1.75;;;;;;;26.28;31.51;93701.25;5013107;28;20092;-79
2021/03/17 07:33:51;;;;;;;3.45;1.52;;;;;;;26.26;31.60;93692.13;5007684;28;20030;-80
2021/03/17 07:36:46;;;;;;;3.47;1.70;;;;;;;26.19;31.74;93698.38;4988315;28;20121;-80
2021/03/17 07:39:15;;;;;;;2.00;1.50;;;;;;;26.11;32.05;93702.47;5001223;28;20057;-68
2021/03/17 07:41:40;;;;;;;3.40;1.70;;;;;;;26.08;31.81;93692.63;5005235;28;20583;-67
2021/03/17 07:44:10;;;;;;;2.42;1.50;;;;;;;26.04;31.96;93698.50;5010368;28;20033;-68
2021/03/17 07:46:37;;;;;;;2.85;1.58;;;;;;;25.76;31.76;93673.53;5007196;28;20030;-68
2021/03/17 07:49:02;;;;;;;4.82;1.88;;;;;;;25.92;32.00;93707.72;4980790;28;20096;-68
2021/03/17 07:51:28;;;;;;;2.50;1.63;;;;;;;25.85;31.96;93709.19;4988363;28;20462;-68
2021/03/17 07:53:55;;;;;;;2.55;1.55;;;;;;;25.77;31.79;93713.28;4975942;28;20030;-68
2021/03/17 07:56:21;;;;;;;3.15;1.60;;;;;;;25.48;32.24;93692.25;4966020;28;20128;-68
2021/03/17 07:58:49;;;;;;;2.70;1.70;;;;;;;25.66;32.25;93708.22;4974066;28;20025;-67
2021/03/17 08:01:14;;;;;;;2.47;1.73;;;;;;;25.44;31.99;93680.97;4998545;28;20026;-68
2021/03/17 08:03:40;;;;;;;2.72;1.63;;;;;;;25.51;31.99;93710.28;4992117;28;20058;-68
2021/03/17 08:06:05;;;;;;;2.25;1.80;;;;;;;25.43;32.27;93717.78;4980362;28;20099;-68
2021/03/17 08:08:31;;;;;;;2.35;1.55;;;;;;;25.40;32.25;93721.63;4994791;28;20030;-68
2021/03/17 08:10:56;;;;;;;2.47;1.70;;;;;;;25.34;32.31;93710.19;4981269;28;20037;-75
2021/03/17 08:13:22;;;;;;;2.20;1.50;;;;;;;25.01;32.68;93673.16;4994079;28;20426;-68
2021/03/17 08:15:47;;;;;;;2.50;1.60;;;;;;;25.22;32.74;93720.06;4968611;28;20034;-68
2021/03/17 08:18:31;;;;;;;2.78;1.70;;;;;;;25.17;32.60;93723.75;4976855;28;20058;-67
2021/03/17 08:20:57;;;;;;;3.45;1.90;;;;;;;25.13;33.18;93706.25;5001422;28;20211;-68
2021/03/17 08:23:51;;;;;;;3.08;1.90;;;;;;;25.06;33.37;93729.59;5010479;28;20112;-68
2021/03/17 08:26:22;;;;;;;3.10;1.75;;;;;;;25.01;33.07;93710.69;4998764;28;20030;-68
2021/03/17 08:28:54;;;;;;;2.50;1.75;;;;;;;24.71;33.26;93677.22;5009782;28;20022;-68
2021/03/17 08:31:38;;;;;;;2.58;1.70;;;;;;;24.92;33.40;93713.94;4990565;28;20110;-68
2021/03/17 08:34:19;;;;;;;3.53;1.73;;;;;;;24.85;33.30;93723.59;5010273;28;20041;-69
2021/03/17 08:36:58;;;;;;;3.85;1.70;;;;;;;24.82;33.64;93731.44;5010345;28;20372;-69
2021/03/17 08:39:29;;;;;;;3.75;1.88;;;;;;;24.77;33.61;93726.88;5008779;28;20030;-68
2021/03/17 08:42:04;;;;;;;3.17;1.83;;;;;;;24.75;33.63;93732.19;5010304;28;20431;-68
2021/03/17 08:44:50;;;;;;;3.13;1.80;;;;;;;24.59;33.66;93708.94;5010019;28;20061;-67
2021/03/17 08:47:29;;;;;;;2.60;1.92;;;;;;;24.65;33.42;93723.09;5009663;28;20038;-68
2021/03/17 08:50:16;;;;;;;2.60;1.88;;;;;;;24.63;33.76;93728.38;5009883;28;20029;-69
2021/03/17 08:52:48;;;;;;;2.72;1.80;;;;;;;24.59;33.60;93722.56;4994673;28;20028;-68
2021/03/17 08:55:20;;;;;;;1.98;1.73;;;;;;;24.55;33.81;93728.38;4978540;28;20029;-69
2021/03/17 08:57:50;;;;;;;2.42;1.80;;;;;;;24.52;33.93;93731.50;4992230;28;20026;-69
2021/03/17 09:01:03;;;;;;;2.33;1.70;;;;;;;24.48;33.38;93731.13;5009804;28;20025;-69
2021/03/17 09:03:31;;;;;;;2.70;1.42;;;;;;;24.46;33.46;93733.66;5008594;28;20054;-69
2021/03/17 09:06:25;;;;;;;1.98;1.42;;;;;;;24.44;33.41;93726.03;5009971;28;20068;-69
2021/03/17 09:09:04;;;;;;;3.10;1.65;;;;;;;24.42;33.48;93722.38;5008429;28;20030;-69
2021/03/17 09:11:30;;;;;;;3.42;1.58;;;;;;;24.38;33.40;93727.50;5009795;28;20032;-69
2021/03/17 09:14:05;;;;;;;2.33;1.70;;;;;;;24.01;33.69;93679.09;5009656;28;20124;-69
2021/03/17 09:16:33;;;;;;;3.80;1.60;;;;;;;24.32;33.37;93724.19;4992808;28;20026;-68
2021/03/17 09:19:11;;;;;;;2.67;1.92;;;;;;;24.29;33.50;93730.00;4991767;28;20018;-68
2021/03/17 09:21:38;;;;;;;2.10;1.58;;;;;;;24.21;33.36;93732.72;4992968;28;20088;-69
2021/03/17 09:24:04;;;;;;;1.95;1.58;;;;;;;24.18;33.48;93731.09;4996231;28;20080;-68
2021/03/17 09:26:29;;;;;;;2.17;1.70;;;;;;;24.19;33.61;93732.56;5009096;28;20434;-68
2021/03/17 09:28:55;;;;;;;2.17;1.80;;;;;;;24.07;33.53;93720.53;5008895;28;20076;-68
2021/03/17 09:31:22;;;;;;;2.55;1.73;;;;;;;24.17;33.76;93735.09;5009214;28;20399;-69
2021/03/17 09:33:48;;;;;;;2.72;2.17;;;;;;;24.17;33.36;93740.56;5009575;28;20033;-69
2021/03/17 09:36:18;;;;;;;2.60;1.80;;;;;;;24.17;33.83;93740.56;5009524;28;20026;-69
2021/03/17 09:38:44;;;;;;;;;;;;;;;24.16;33.69;93732.91;5009394;28;20049;-69
2021/03/17 09:41:20;;;;;;;1.98;1.60;;;;;;;24.14;33.44;93741.66;5008147;28;19917;-68
2021/03/17 09:43:46;;;;;;;2.13;1.80;;;;;;;24.11;33.82;93742.00;4988514;28;20026;-68
2021/03/17 09:46:24;;;;;;;2.72;1.77;;;;;;;24.09;33.63;93745.25;4971843;28;20415;-68
2021/03/17 09:48:51;;;;;;;3.20;1.73;;;;;;;24.03;34.00;93741.25;4992254;28;20029;-68
2021/03/17 09:51:21;;;;;;;1.75;1.40;;;;;;;24.07;33.33;93758.72;4972525;28;20487;-68
2021/03/17 09:53:47;;;;;;;2.42;1.75;;;;;;;24.08;33.66;93743.81;4972516;28;20034;-67
2021/03/17 09:56:13;;;;;;;2.63;1.60;;;;;;;23.88;33.61;93720.19;4989223;28;20031;-68
2021/03/17 09:58:38;;;;;;;3.15;1.65;;;;;;;24.05;33.44;93749.63;4971518;28;20487;-68
2021/03/17 10:01:14;;;;;;;2.83;1.90;;;;;;;24.04;33.67;93748.91;4972002;28;20034;-68
2021/03/17 10:03:44;;;;;;;2.17;1.88;;;;;;;24.02;33.70;93751.44;4978382;28;20046;-69
2021/03/17 10:06:10;;;;;;;2.40;1.73;;;;;;;23.99;34.04;93749.81;5006082;28;20101;-68
2021/03/17 10:08:35;;;;;;;2.65;1.75;;;;;;;23.98;33.68;93756.53;5000572;28;20034;-69
2021/03/17 10:11:01;;;;;;;2.22;1.63;;;;;;;23.93;33.81;93754.72;4990808;28;20026;-69
2021/03/17 10:13:27;;;;;;;2.63;1.70;;;;;;;23.93;33.97;93753.97;4987386;28;20037;-69
2021/03/17 10:15:54;;;;;;;2.10;1.70;;;;;;;23.95;35.31;93765.78;5006931;28;20029;-69
2021/03/17 10:18:19;;;;;;;6.45;2.40;;;;;;;23.97;34.74;93760.50;5005299;28;20038;-70
2021/03/17 10:20:45;;;;;;;6.18;2.25;;;;;;;23.97;34.29;93760.50;5003567;28;20060;-70
2021/03/17 10:23:10;;;;;;;5.20;2.28;;;;;;;24.02;34.83;93778.72;5004360;28;20022;-69
2021/03/17 10:25:36;;;;;;;4.97;2.38;;;;;;;23.92;33.92;93736.88;5007688;28;20033;-68
2021/03/17 10:28:05;;;;;;;4.07;2.15;;;;;;;24.15;34.67;93764.91;4978260;28;20087;-68
2021/03/17 10:30:33;;;;;;;4.82;1.90;;;;;;;24.22;34.33;93768.94;4999206;28;20112;-72
2021/03/17 10:33:01;;;;;;;4.97;2.10;;;;;;;24.29;34.31;93773.66;5007057;28;20669;-72
2021/03/17 10:35:28;;;;;;;4.30;2.00;;;;;;;24.37;34.08;93764.25;4999957;28;20036;-73
2021/03/17 10:37:53;;;;;;;5.60;1.85;;;;;;;24.49;34.77;93770.78;4988864;28;20187;-74
2021/03/17 10:40:20;;;;;;;3.10;2.00;;;;;;;24.58;34.85;93767.50;5008063;28;20038;-72
2021/03/17 10:42:47;;;;;;;4.20;2.63;;;;;;;24.68;34.44;93776.59;5004287;28;20030;-72
2021/03/17 10:45:17;;;;;;;2.60;1.80;;;;;;;24.78;34.75;93774.78;4988706;28;20021;-72
2021/03/17 10:47:43;;;;;;;3.10;2.00;;;;;;;24.81;34.53;93763.47;5003522;28;20088;-72
2021/03/17 10:50:30;;;;;;;2.97;2.10;;;;;;;24.93;34.52;93770.75;5005610;28;20026;-71
2021/03/17 10:52:56;;;;;;;3.08;1.98;;;;;;;25.04;34.44;93770.38;5004912;28;20048;-73
2021/03/17 10:55:25;;;;;;;2.75;1.60;;;;;;;25.15;34.06;93785.66;4987335;28;20414;-71
2021/03/17 10:57:51;;;;;;;3.72;1.67;;;;;;;24.96;34.40;93734.16;5004554;28;20196;-73
2021/03/17 11:00:20;;;;;;;6.45;2.60;;;;;;;25.28;31.90;93767.03;5006636;28;20045;-73
2021/03/17 11:02:45;;;;;;;3.47;1.65;;;;;;;25.30;33.16;93769.94;5006132;28;20128;-73
2021/03/17 11:05:11;;;;;;;3.08;1.90;;;;;;;25.38;33.78;93762.44;5022343;28;20405;-73
2021/03/17 11:08:10;;;;;;;3.15;2.08;;;;;;;25.12;33.78;93730.09;5007032;28;20109;-73
2021/03/17 11:10:46;;;;;;;3.47;1.70;;;;;;;25.50;33.83;93768.97;5004451;28;20112;-72
2021/03/17 11:13:12;;;;;;;5.00;1.90;;;;;;;25.56;33.60;93770.22;5005972;28;20113;-72
2021/03/17 11:15:54;;;;;;;2.88;1.70;;;;;;;25.63;33.47;93780.38;5006871;28;20425;-73
2021/03/17 11:18:33;;;;;;;3.78;1.80;;;;;;;25.73;33.54;93756.69;5006057;28;20117;-73
2021/03/17 11:21:09;;;;;;;3.08;1.90;;;;;;;25.76;33.30;93760.31;5006300;28;20450;-74
2021/03/17 11:23:36;;;;;;;2.80;1.90;;;;;;;25.73;33.22;93755.97;4995766;28;20037;-73
2021/03/17 11:26:02;;;;;;;4.20;2.00;;;;;;;25.85;33.28;93774.84;5006746;28;20029;-72
2021/03/17 11:28:31;;;;;;;5.90;2.75;;;;;;;25.81;30.28;93760.84;4968388;28;20041;-72
2021/03/17 11:31:01;;;;;;;2.50;1.85;;;;;;;25.81;32.19;93782.72;5005551;28;20135;-72
2021/03/17 11:33:26;;;;;;;2.58;1.88;;;;;;;25.90;32.55;93765.72;4992328;28;20037;-73
2021/03/17 11:35:54;;;;;;;2.67;1.85;;;;;;;26.02;32.67;93766.75;5004037;28;20423;-71
2021/03/17 11:38:20;;;;;;;2.38;1.50;;;;;;;26.07;32.67;93756.84;4992377;28;20466;-72
2021/03/17 11:40:46;;;;;;;3.40;1.65;;;;;;;26.12;32.50;93770.31;5002883;28;20030;-72
2021/03/17 11:43:14;;;;;;;2.95;1.77;;;;;;;26.17;32.27;93763.88;5009483;28;20407;-73